Terminal Aerodrome Forecast
Issued by NWS Billings, MT

Home | Current Version | Previous Version | Graphics & Text | Print | Product List | Glossary On
Versions: 1 2 3 4 5 6 7 8 9 10 11 12 13 14 15 16 17 18 19 20
000
FTUS45 KBYZ 161730
TAFMLS
TAF
KMLS 161730Z 1618/1718 13017KT P6SM SCT250
     FM170800 01014G23KT P6SM -SHRA SCT030 OVC090
     FM171330 34011KT 6SM -SHRA OVC010=

USA.gov is the U.S. government's official web portal to all federal, state and local government web resources and services.